Tabiona
, Tabiona
Last Weather Update:07/31/2011 10:00:00 PM
Date
ETo
ETc
Rain
Irrigation
Req
Temp
Max
Temp
Min
Temp
Avg
Avg RH
Avg Wind
Avg Solar
inches
inches
incehs
inches
F
F
F
%
%
watts/m2
06/01/2011 0.29" 0.23" 0.00" 0.23" 70.7° 34.8° 54.3° 37.9% 7.4 MPH 433.5w/m2
06/02/2011 0.34" 0.27" 0.00" 0.27" 62.0° 36.2° 52.8° 24.1% 9.0 MPH 535.7w/m2
06/03/2011 0.30" 0.24" 0.00" 0.24" 65.2° 29.7° 47.9° 35.9% 5.8 MPH 513.3w/m2
06/04/2011 0.32" 0.26" 0.00" 0.26" 72.2° 34.9° 53.7° 39.0% 7.9 MPH 496.9w/m2
06/05/2011 0.43" 0.34" 0.00" 0.34" 79.6° 40.1° 59.6° 33.8% 8.4 MPH 615.0w/m2
06/06/2011 0.35" 0.28" 0.00" 0.28" 76.5° 42.0° 56.4° 37.3% 11.2 MPH 480.4w/m2
06/07/2011 0.29" 0.23" 0.00" 0.23" 67.9° 32.8° 52.9° 43.3% 7.8 MPH 462.6w/m2
06/08/2011 0.29" 0.23" 0.00" 0.23" 72.7° 36.0° 55.0° 45.2% 7.9 MPH 433.7w/m2
06/09/2011 0.28" 0.22" 0.00" 0.22" 63.8° 37.8° 51.0° 49.4% 9.5 MPH 478.7w/m2
06/10/2011 0.31" 0.25" 0.00" 0.25" 72.2° 29.3° 52.4° 44.5% 4.3 MPH 511.7w/m2
06/11/2011 0.40" 0.32" 0.00" 0.32" 76.1° 42.6° 59.4° 38.9% 7.4 MPH 586.2w/m2
06/12/2011 0.35" 0.28" 0.00" 0.28" 73.4° 44.8° 59.5° 36.6% 7.9 MPH 502.5w/m2
06/13/2011 0.24" 0.19" 0.01" 0.18" 71.6° 41.4° 55.3° 49.4% 7.0 MPH 350.7w/m2
06/14/2011 0.37" 0.30" 0.00" 0.30" 72.5° 40.3° 57.1° 49.0% 9.1 MPH 585.3w/m2
06/15/2011 0.43" 0.35" 0.00" 0.35" 81.2° 41.4° 61.5° 44.0% 7.3 MPH 621.1w/m2
06/16/2011 0.29" 0.23" 0.00" 0.23" 71.9° 45.2° 57.3° 48.8% 8.5 MPH 423.0w/m2
06/17/2011 0.37" 0.29" 0.00" 0.29" 72.0° 35.2° 53.7° 34.7% 5.8 MPH 569.9w/m2
06/18/2011 0.31" 0.24" 0.00" 0.24" 73.8° 37.2° 56.9° 40.4% 6.7 MPH 443.6w/m2
06/19/2011 0.18" 0.14" 0.07" 0.09" 57.7° 43.2° 50.4° 61.8% 13.1 MPH 326.1w/m2
06/20/2011 0.36" 0.28" 0.00" 0.28" 68.7° 42.2° 56.4° 48.6% 11.1 MPH 567.3w/m2
06/21/2011 0.43" 0.35" 0.00" 0.35" 75.9° 38.0° 58.7° 41.3% 7.7 MPH 634.1w/m2
06/22/2011 0.39" 0.31" 0.00" 0.31" 83.3° 39.5° 62.3° 36.5% 6.9 MPH 737.1w/m2
06/23/2011 0.29" 0.23" 0.00" 0.23" 86.7° 49.7° 67.7° 35.7% 7.1 MPH 425.4w/m2
06/24/2011 0.45" 0.36" 0.00" 0.36" 83.4° 49.0° 66.3° 35.0% 8.6 MPH 582.0w/m2
06/25/2011 0.25" 0.20" 0.00" 0.20" 82.3° 46.1° 64.4° 35.9% 8.0 MPH 809.5w/m2
06/26/2011 0.37" 0.30" 0.00" 0.30" 79.4° 44.6° 62.2° 35.7% 9.4 MPH 696.2w/m2
06/27/2011 0.46" 0.37" 0.00" 0.37" 83.5° 42.1° 62.1° 42.2% 5.6 MPH 673.5w/m2
06/28/2011 0.40" 0.32" 0.00" 0.32" 87.7° 46.4° 67.4° 34.8% 6.8 MPH 518.2w/m2
06/29/2011 0.26" 0.20" 0.16" 0.08" 83.9° 50.5° 62.3° 52.8% 7.3 MPH 327.6w/m2
06/30/2011 0.22" 0.18" 0.27" -0.04" 73.0° 45.6° 56.5° 71.1% 5.3 MPH 350.1w/m2
Totals: 10.04" 8.03" 0.51" 7.62" 87.7° 29.3° 57.8° 42.1% 7.9 MPH 523.0w/m2